Greer, Arizona
Current Conditions -  °F | °C
As of 6:15 PM on Saturday 25 Oct 2014 (Local Time) from KJTC Reporting Station
Clear Clear  
Wind Chill: 55°   Ceiling: Unl
Heat Index: 55°   Visibility: 10mi
Dew Point: 39°   Wind: 8mph
Humidity: 54%   Direction: 230°SW
Pressure: 30.34"   Gusts: NA
Location:  34.01°N, 109.46°W
Report Text: KJTC 260115Z AUTO 23007KT 10SM CLR 13/04 A3034 RMK AO2
Loading
Personal Weather Stations






























Interactive Weather Map New forecast layout! Learn more

10-Day Weather Forecast

Advertisements
Track Severe Weather on mobile